createdAt,value
2019-04-06T00:00:11.738Z,19.38
2019-04-06T00:01:11.790Z,19.36
2019-04-06T00:02:11.401Z,19.37
2019-04-06T00:03:11.403Z,19.37
2019-04-06T00:04:11.379Z,19.37
2019-04-06T00:05:11.444Z,19.38
2019-04-06T00:06:11.425Z,19.35
2019-04-06T00:07:11.349Z,19.36
2019-04-06T00:08:11.467Z,19.33
2019-04-06T00:09:11.547Z,19.36
2019-04-06T00:10:11.569Z,19.35
2019-04-06T00:11:11.281Z,19.33
2019-04-06T00:12:11.467Z,19.33
2019-04-06T00:13:11.415Z,19.33
2019-04-06T00:14:11.532Z,19.31
2019-04-06T00:15:11.494Z,19.35
2019-04-06T00:16:11.529Z,19.3
2019-04-06T00:17:11.577Z,19.32
2019-04-06T00:18:11.595Z,19.33
2019-04-06T00:19:11.584Z,19.33
2019-04-06T00:20:11.660Z,19.32
2019-04-06T00:21:11.615Z,19.29
2019-04-06T00:22:11.514Z,19.3
2019-04-06T00:23:11.721Z,19.3
2019-04-06T00:24:11.346Z,19.29
2019-04-06T00:25:11.719Z,19.3
2019-04-06T00:26:11.353Z,19.3
2019-04-06T00:27:11.384Z,19.29
2019-04-06T00:28:11.596Z,19.29
2019-04-06T00:29:11.636Z,19.28
2019-04-06T00:30:11.431Z,19.28
2019-04-06T00:31:11.435Z,19.27
2019-04-06T00:32:11.493Z,19.25
2019-04-06T00:33:11.451Z,19.27
2019-04-06T00:34:11.581Z,19.29
2019-04-06T00:35:11.323Z,19.26
2019-04-06T00:36:11.701Z,19.25
2019-04-06T00:37:11.511Z,19.25
2019-04-06T00:38:11.473Z,19.25
2019-04-06T00:39:11.390Z,19.24
2019-04-06T00:40:11.524Z,19.26
2019-04-06T00:41:11.634Z,19.26
2019-04-06T00:42:11.589Z,19.23
2019-04-06T00:43:11.556Z,19.23
2019-04-06T00:44:12.389Z,19.25
2019-04-06T00:45:11.439Z,19.25
2019-04-06T00:46:11.461Z,19.24
2019-04-06T00:47:11.502Z,19.24
2019-04-06T00:48:11.490Z,19.23
2019-04-06T00:49:11.386Z,19.22
2019-04-06T00:50:11.430Z,19.23
2019-04-06T00:51:11.426Z,19.23
2019-04-06T00:52:11.438Z,19.23
2019-04-06T00:53:11.557Z,19.21
2019-04-06T00:54:11.442Z,19.21
2019-04-06T00:55:11.731Z,19.2
2019-04-06T00:56:11.569Z,19.21
2019-04-06T00:57:11.571Z,19.18
2019-04-06T00:58:11.484Z,19.21
2019-04-06T00:59:11.502Z,19.2
2019-04-06T01:00:11.511Z,19.17
2019-04-06T01:01:11.424Z,19.18
2019-04-06T01:02:11.680Z,19.21
2019-04-06T01:03:11.282Z,19.18
2019-04-06T01:04:11.588Z,19.18
2019-04-06T01:05:11.576Z,19.16
2019-04-06T01:06:12.102Z,19.17
2019-04-06T01:07:11.356Z,19.17
2019-04-06T01:08:11.306Z,19.16
2019-04-06T01:09:11.356Z,19.16
2019-04-06T01:10:11.517Z,19.16
2019-04-06T01:11:11.404Z,19.15
2019-04-06T01:12:11.510Z,19.14
2019-04-06T01:13:11.391Z,19.14
2019-04-06T01:14:11.426Z,19.16
2019-04-06T01:15:11.395Z,19.14
2019-04-06T01:16:11.422Z,19.15
2019-04-06T01:17:11.565Z,19.13
2019-04-06T01:18:11.442Z,19.14
2019-04-06T01:19:11.216Z,19.12
2019-04-06T01:20:11.442Z,19.13
2019-04-06T01:21:11.492Z,19.12
2019-04-06T01:22:11.766Z,19.12
2019-04-06T01:23:11.361Z,19.15
2019-04-06T01:24:11.600Z,19.11
2019-04-06T01:25:11.566Z,19.11
2019-04-06T01:26:11.543Z,19.13
2019-04-06T01:27:11.500Z,19.12
2019-04-06T01:28:11.426Z,19.11
2019-04-06T01:29:11.499Z,19.12
2019-04-06T01:30:11.369Z,19.11
2019-04-06T01:31:11.312Z,19.1
2019-04-06T01:32:11.388Z,19.09
2019-04-06T01:33:11.428Z,19.09
2019-04-06T01:34:11.520Z,19.09
2019-04-06T01:35:11.450Z,19.1
2019-04-06T01:36:11.351Z,19.08
2019-04-06T01:37:11.456Z,19.09
2019-04-06T01:38:11.515Z,19.09
2019-04-06T01:39:11.364Z,19.09
2019-04-06T01:40:11.388Z,19.09
2019-04-06T01:41:11.520Z,19.07
2019-04-06T01:42:11.496Z,19.08
2019-04-06T01:43:11.486Z,19.07
2019-04-06T01:44:11.533Z,19.05
2019-04-06T01:45:11.548Z,19.06
2019-04-06T01:46:11.532Z,19.07
2019-04-06T01:47:11.669Z,19.05
2019-04-06T01:48:11.728Z,19.05
2019-04-06T01:49:11.914Z,19.02
2019-04-06T01:50:11.308Z,19.05
2019-04-06T01:51:11.455Z,19.03
2019-04-06T01:52:11.522Z,19.05
2019-04-06T01:53:11.368Z,19.05
2019-04-06T01:54:11.384Z,19.03
2019-04-06T01:55:11.372Z,19.03
2019-04-06T01:56:19.420Z,19.05
2019-04-06T01:57:11.398Z,19.02
2019-04-06T01:58:11.400Z,19.03
2019-04-06T01:59:11.542Z,19.01
2019-04-06T02:00:11.408Z,19.03
2019-04-06T02:01:11.630Z,19.01
2019-04-06T02:02:11.521Z,19.02
2019-04-06T02:03:11.326Z,19.01
2019-04-06T02:04:11.460Z,19
2019-04-06T02:05:11.519Z,19.01
2019-04-06T02:06:11.513Z,19
2019-04-06T02:07:11.520Z,18.99
2019-04-06T02:08:11.313Z,19.02
2019-04-06T02:09:11.464Z,18.98
2019-04-06T02:10:11.458Z,19.01
2019-04-06T02:11:11.399Z,18.98
2019-04-06T02:12:11.454Z,18.98
2019-04-06T02:13:11.440Z,18.97
2019-04-06T02:14:11.405Z,18.99
2019-04-06T02:15:11.311Z,18.98
2019-04-06T02:16:11.451Z,18.99
2019-04-06T02:17:11.405Z,18.98
2019-04-06T02:18:11.595Z,18.98
2019-04-06T02:19:11.429Z,18.98
2019-04-06T02:20:11.511Z,18.98
2019-04-06T02:21:11.485Z,18.97
2019-04-06T02:22:11.463Z,18.96
2019-04-06T02:23:11.189Z,18.95
2019-04-06T02:24:11.475Z,18.98
2019-04-06T02:25:11.478Z,18.96
2019-04-06T02:26:11.537Z,18.95
2019-04-06T02:27:11.319Z,18.96
2019-04-06T02:28:11.722Z,18.95
2019-04-06T02:29:11.580Z,18.95
2019-04-06T02:30:11.572Z,18.94
2019-04-06T02:31:11.309Z,18.97
2019-04-06T02:32:11.296Z,18.94
2019-04-06T02:33:15.200Z,18.94
2019-04-06T02:34:11.325Z,18.93
2019-04-06T02:35:11.341Z,18.95
2019-04-06T02:36:11.552Z,18.94
2019-04-06T02:37:11.583Z,18.94
2019-04-06T02:38:11.347Z,18.93
2019-04-06T02:39:11.388Z,18.93
2019-04-06T02:40:11.397Z,18.92
2019-04-06T02:41:11.504Z,18.91
2019-04-06T02:42:11.419Z,18.93
2019-04-06T02:43:11.586Z,18.91
2019-04-06T02:44:11.460Z,18.93
2019-04-06T02:45:11.633Z,18.88
2019-04-06T02:46:11.770Z,18.89
2019-04-06T02:47:11.494Z,18.89
2019-04-06T02:48:11.762Z,18.88
2019-04-06T02:49:11.532Z,18.88
2019-04-06T02:50:11.549Z,18.89
2019-04-06T02:51:11.439Z,18.89
2019-04-06T02:52:11.701Z,18.88
2019-04-06T02:53:11.328Z,18.88
2019-04-06T02:54:12.053Z,18.86
2019-04-06T02:55:11.330Z,18.85
2019-04-06T02:56:11.727Z,18.86
2019-04-06T02:57:11.625Z,18.87
2019-04-06T02:58:11.445Z,18.87
2019-04-06T02:59:11.462Z,18.89
2019-04-06T03:00:11.392Z,18.88
2019-04-06T03:01:11.386Z,18.87
2019-04-06T03:02:11.674Z,18.86
2019-04-06T03:03:11.362Z,18.84
2019-04-06T03:04:11.454Z,18.85
2019-04-06T03:05:11.542Z,18.86
2019-04-06T03:06:11.793Z,18.86
2019-04-06T03:07:11.242Z,18.85
2019-04-06T03:08:11.636Z,18.85
2019-04-06T03:09:12.513Z,18.83
2019-04-06T03:10:11.473Z,18.84
2019-04-06T03:11:11.530Z,18.83
2019-04-06T03:12:11.990Z,18.83
2019-04-06T03:13:11.560Z,18.83
2019-04-06T03:14:11.633Z,18.84
2019-04-06T03:15:11.436Z,18.86
2019-04-06T03:16:11.366Z,18.81
2019-04-06T03:17:11.523Z,18.84
2019-04-06T03:18:11.290Z,18.83
2019-04-06T03:19:11.390Z,18.82
2019-04-06T03:20:11.448Z,18.82
2019-04-06T03:21:11.351Z,18.83
2019-04-06T03:22:11.385Z,18.8
2019-04-06T03:23:11.293Z,18.82
2019-04-06T03:24:11.684Z,18.79
2019-04-06T03:25:11.492Z,18.8
2019-04-06T03:26:11.437Z,18.79
2019-04-06T03:27:11.455Z,18.81
2019-04-06T03:28:11.997Z,18.79
2019-04-06T03:29:11.479Z,18.81
2019-04-06T03:30:11.552Z,18.81
2019-04-06T03:31:11.566Z,18.81
2019-04-06T03:32:11.581Z,18.8
2019-04-06T03:33:11.787Z,18.77
2019-04-06T03:34:13.072Z,18.79
2019-04-06T03:35:11.557Z,18.8
2019-04-06T03:36:11.473Z,18.78
2019-04-06T03:37:11.555Z,18.78
2019-04-06T03:38:11.738Z,18.77
2019-04-06T03:39:18.253Z,18.77
2019-04-06T03:40:11.426Z,18.78
2019-04-06T03:41:11.364Z,18.79
2019-04-06T03:42:11.942Z,18.78
2019-04-06T03:43:11.418Z,18.77
2019-04-06T03:44:11.456Z,18.82
2019-04-06T03:45:11.642Z,18.8
2019-04-06T03:46:11.477Z,18.8
2019-04-06T03:47:11.423Z,18.81
2019-04-06T03:48:11.595Z,18.8
2019-04-06T03:49:11.492Z,18.81
2019-04-06T03:50:11.397Z,18.82
2019-04-06T03:51:11.462Z,18.82
2019-04-06T03:52:11.718Z,18.8
2019-04-06T03:53:11.857Z,18.82
2019-04-06T03:54:11.259Z,18.82
2019-04-06T03:55:11.817Z,18.83
2019-04-06T03:56:11.522Z,18.84
2019-04-06T03:57:17.593Z,18.86
2019-04-06T03:58:11.295Z,18.86
2019-04-06T03:59:12.140Z,18.87
2019-04-06T04:00:11.911Z,18.89
2019-04-06T04:01:11.259Z,18.89
2019-04-06T04:02:11.376Z,18.91
2019-04-06T04:03:11.704Z,18.93
2019-04-06T04:04:11.374Z,18.94
2019-04-06T04:05:11.386Z,18.96
2019-04-06T04:06:11.546Z,18.95
2019-04-06T04:07:11.373Z,18.98
2019-04-06T04:08:11.408Z,18.98
2019-04-06T04:09:11.467Z,19
2019-04-06T04:10:11.535Z,19.02
2019-04-06T04:11:11.915Z,19.01
2019-04-06T04:12:11.616Z,19.03
2019-04-06T04:13:11.318Z,19.06
2019-04-06T04:14:11.471Z,19.08
2019-04-06T04:15:11.540Z,19.09
2019-04-06T04:16:11.891Z,19.12
2019-04-06T04:17:11.512Z,19.11
2019-04-06T04:18:11.681Z,19.15
2019-04-06T04:19:11.293Z,19.16
2019-04-06T04:20:11.562Z,19.16
2019-04-06T04:21:11.916Z,19.17
2019-04-06T04:22:11.625Z,19.2
2019-04-06T04:23:11.411Z,19.22
2019-04-06T04:24:11.803Z,19.21
2019-04-06T04:25:11.451Z,19.24
2019-04-06T04:26:11.308Z,19.25
2019-04-06T04:27:11.402Z,19.27
2019-04-06T04:28:12.015Z,19.28
2019-04-06T04:29:11.573Z,19.31
2019-04-06T04:30:11.252Z,19.31
2019-04-06T04:31:11.451Z,19.32
2019-04-06T04:32:11.448Z,19.32
2019-04-06T04:33:11.413Z,19.33
2019-04-06T04:34:11.448Z,19.35
2019-04-06T04:35:11.715Z,19.36
2019-04-06T04:36:11.628Z,19.39
2019-04-06T04:37:11.522Z,19.4
2019-04-06T04:38:11.270Z,19.4
2019-04-06T04:39:11.510Z,19.43
2019-04-06T04:40:11.511Z,19.42
2019-04-06T04:41:11.542Z,19.44
2019-04-06T04:42:11.471Z,19.45
2019-04-06T04:43:11.333Z,19.5
2019-04-06T04:44:11.305Z,19.48
2019-04-06T04:45:11.494Z,19.5
2019-04-06T04:46:11.283Z,19.5
2019-04-06T04:47:11.307Z,19.51
2019-04-06T04:48:11.309Z,19.52
2019-04-06T04:49:11.294Z,19.54
2019-04-06T04:50:11.630Z,19.56
2019-04-06T04:51:11.351Z,19.56
2019-04-06T04:52:11.346Z,19.56
2019-04-06T04:53:11.417Z,19.58
2019-04-06T04:54:11.643Z,19.59
2019-04-06T04:55:11.520Z,19.6
2019-04-06T04:56:11.458Z,19.6
2019-04-06T04:57:11.709Z,19.59
2019-04-06T04:58:11.407Z,19.61
2019-04-06T04:59:11.453Z,19.63
2019-04-06T05:00:11.489Z,19.65
2019-04-06T05:01:11.605Z,19.66
2019-04-06T05:02:11.311Z,19.68
2019-04-06T05:03:11.562Z,19.68
2019-04-06T05:04:11.461Z,19.68
2019-04-06T05:05:11.423Z,19.71
2019-04-06T05:06:11.367Z,19.72
2019-04-06T05:07:11.429Z,19.71
2019-04-06T05:08:11.541Z,19.73
2019-04-06T05:09:11.490Z,19.73
2019-04-06T05:10:11.326Z,19.75
2019-04-06T05:11:11.397Z,19.76
2019-04-06T05:12:11.403Z,19.76
2019-04-06T05:13:11.642Z,19.77
2019-04-06T05:14:11.476Z,19.79
2019-04-06T05:15:11.417Z,19.77
2019-04-06T05:16:11.424Z,19.82
2019-04-06T05:17:11.441Z,19.82
2019-04-06T05:18:11.460Z,19.81
2019-04-06T05:19:11.499Z,19.83
2019-04-06T05:20:11.458Z,19.85
2019-04-06T05:21:11.722Z,19.85
2019-04-06T05:22:11.271Z,19.87
2019-04-06T05:23:11.502Z,19.87
2019-04-06T05:24:11.645Z,19.88
2019-04-06T05:25:11.351Z,19.87
2019-04-06T05:26:11.368Z,19.91
2019-04-06T05:27:11.611Z,19.9
2019-04-06T05:28:11.298Z,19.92
2019-04-06T05:29:11.387Z,19.91
2019-04-06T05:30:11.184Z,19.94
2019-04-06T05:31:11.273Z,19.94
2019-04-06T05:32:11.652Z,19.94
2019-04-06T05:33:11.514Z,19.96
2019-04-06T05:34:11.184Z,19.97
2019-04-06T05:35:11.379Z,19.98
2019-04-06T05:36:11.360Z,19.97
2019-04-06T05:37:11.379Z,19.99
2019-04-06T05:38:11.143Z,19.99
2019-04-06T05:39:11.378Z,20.01
2019-04-06T05:40:11.390Z,20.02
2019-04-06T05:41:11.463Z,20.02
2019-04-06T05:42:11.231Z,20.03
2019-04-06T05:43:11.652Z,20.03
2019-04-06T05:44:11.459Z,20.07
2019-04-06T05:45:11.282Z,20.05
2019-04-06T05:46:11.510Z,20.06
2019-04-06T05:47:11.711Z,20.09
2019-04-06T05:48:11.397Z,20.09
2019-04-06T05:49:11.312Z,20.07
2019-04-06T05:50:11.280Z,20.1
2019-04-06T05:51:11.548Z,20.1
2019-04-06T05:52:11.864Z,20.1
2019-04-06T05:53:11.499Z,20.12
2019-04-06T05:54:11.306Z,20.13
2019-04-06T05:55:11.392Z,20.14
2019-04-06T05:56:11.586Z,20.13
2019-04-06T05:57:11.751Z,20.12
2019-04-06T05:58:11.296Z,20.14
2019-04-06T05:59:11.397Z,20.14
2019-04-06T06:00:11.811Z,20.16
2019-04-06T06:01:11.622Z,20.15
2019-04-06T06:02:11.631Z,20.19
2019-04-06T06:03:11.939Z,20.18
2019-04-06T06:04:11.919Z,20.19
2019-04-06T06:05:11.654Z,20.2
2019-04-06T06:06:13.573Z,20.19
2019-04-06T06:07:11.222Z,20.21
2019-04-06T06:08:11.456Z,20.21
2019-04-06T06:09:11.237Z,20.2
2019-04-06T06:10:11.281Z,20.24
2019-04-06T06:11:11.360Z,20.24
2019-04-06T06:12:11.531Z,20.24
2019-04-06T06:13:11.378Z,20.25
2019-04-06T06:14:11.413Z,20.26
2019-04-06T06:15:11.327Z,20.25
2019-04-06T06:16:12.788Z,20.25
2019-04-06T06:17:11.583Z,20.27
2019-04-06T06:18:11.332Z,20.27
2019-04-06T06:19:12.455Z,20.25
2019-04-06T06:20:11.610Z,20.27
2019-04-06T06:21:11.416Z,20.27
2019-04-06T06:22:11.668Z,20.27
2019-04-06T06:23:11.655Z,20.26
2019-04-06T06:24:11.308Z,20.28
2019-04-06T06:25:11.321Z,20.3
2019-04-06T06:26:11.449Z,20.28
2019-04-06T06:27:11.416Z,20.3
2019-04-06T06:28:15.796Z,20.32
2019-04-06T06:29:11.608Z,20.29
2019-04-06T06:30:11.441Z,20.32
2019-04-06T06:31:11.310Z,20.33
2019-04-06T06:32:11.643Z,20.31
2019-04-06T06:33:11.345Z,20.33
2019-04-06T06:34:11.750Z,20.33
2019-04-06T06:35:11.448Z,20.33
2019-04-06T06:36:11.506Z,20.33
2019-04-06T06:37:11.595Z,20.34
2019-04-06T06:38:11.357Z,20.34
2019-04-06T06:39:11.501Z,20.35
2019-04-06T06:40:11.435Z,20.35
2019-04-06T06:41:11.529Z,20.35
2019-04-06T06:42:11.177Z,20.36
2019-04-06T06:43:11.518Z,20.39
2019-04-06T06:44:11.288Z,20.39
2019-04-06T06:45:11.262Z,20.39
2019-04-06T06:46:11.231Z,20.37
2019-04-06T06:47:11.242Z,20.4
2019-04-06T06:48:11.381Z,20.39
2019-04-06T06:49:11.363Z,20.41
2019-04-06T06:50:11.287Z,20.42
2019-04-06T06:51:11.614Z,20.42
2019-04-06T06:52:11.659Z,20.43
2019-04-06T06:53:11.376Z,20.42
2019-04-06T06:54:11.384Z,20.42
2019-04-06T06:55:11.783Z,20.43
2019-04-06T06:56:11.218Z,20.44
2019-04-06T06:57:11.338Z,20.45
2019-04-06T06:58:11.350Z,20.45
2019-04-06T06:59:11.367Z,20.44
2019-04-06T07:00:11.435Z,20.46
2019-04-06T07:01:11.721Z,20.45
2019-04-06T07:02:11.538Z,20.46
2019-04-06T07:03:11.420Z,20.47
2019-04-06T07:04:11.343Z,20.47
2019-04-06T07:05:11.281Z,20.48
2019-04-06T07:06:11.253Z,20.49
2019-04-06T07:07:11.318Z,20.48
2019-04-06T07:08:11.257Z,20.49
2019-04-06T07:09:11.274Z,20.51
2019-04-06T07:10:11.309Z,20.49
2019-04-06T07:11:11.345Z,20.49
2019-04-06T07:12:11.335Z,20.51
2019-04-06T07:13:11.971Z,20.53
2019-04-06T07:14:11.542Z,20.53
2019-04-06T07:15:11.381Z,20.51
2019-04-06T07:16:11.416Z,20.55
2019-04-06T07:17:11.373Z,20.53
2019-04-06T07:18:11.431Z,20.54
2019-04-06T07:19:11.402Z,20.55
2019-04-06T07:20:11.646Z,20.57
2019-04-06T07:21:11.349Z,20.57
2019-04-06T07:22:11.121Z,20.58
2019-04-06T07:23:11.283Z,20.57
2019-04-06T07:24:11.093Z,20.57
2019-04-06T07:25:11.087Z,20.59
2019-04-06T07:26:11.235Z,20.57
2019-04-06T07:27:11.182Z,20.59
2019-04-06T07:28:11.433Z,20.58
2019-04-06T07:29:11.282Z,20.59
2019-04-06T07:30:11.257Z,20.61
2019-04-06T07:31:11.307Z,20.61
2019-04-06T07:32:11.495Z,20.61
2019-04-06T07:33:11.358Z,20.61
2019-04-06T07:34:11.261Z,20.61
2019-04-06T07:35:11.233Z,20.62
2019-04-06T07:36:11.482Z,20.62
2019-04-06T07:37:11.262Z,20.62
2019-04-06T07:38:11.278Z,20.62
2019-04-06T07:39:11.448Z,20.63
2019-04-06T07:40:11.434Z,20.63
2019-04-06T07:41:11.312Z,20.63
2019-04-06T07:42:11.092Z,20.62
2019-04-06T07:43:11.073Z,20.63
2019-04-06T07:44:11.139Z,20.63
2019-04-06T07:45:11.131Z,20.62
2019-04-06T07:46:11.193Z,20.61
2019-04-06T07:47:11.192Z,20.59
2019-04-06T07:48:11.312Z,20.58
2019-04-06T07:49:11.306Z,20.58
2019-04-06T07:50:11.207Z,20.55
2019-04-06T07:51:11.245Z,20.55
2019-04-06T07:52:11.535Z,20.55
2019-04-06T07:53:11.267Z,20.57
2019-04-06T07:54:11.218Z,20.57
2019-04-06T07:55:11.352Z,20.58
2019-04-06T07:56:11.524Z,20.58
2019-04-06T07:57:11.284Z,20.57
2019-04-06T07:58:11.394Z,20.61
2019-04-06T07:59:11.744Z,20.61
2019-04-06T08:00:11.383Z,20.6
2019-04-06T08:01:11.380Z,20.61
2019-04-06T08:02:11.097Z,20.61
2019-04-06T08:03:11.050Z,20.63
2019-04-06T08:04:11.569Z,20.61
2019-04-06T08:05:11.386Z,20.62
2019-04-06T08:06:11.234Z,20.63
2019-04-06T08:07:11.216Z,20.64
2019-04-06T08:08:11.509Z,20.64
2019-04-06T08:09:11.190Z,20.63
2019-04-06T08:10:11.073Z,20.66
2019-04-06T08:11:11.158Z,20.66
2019-04-06T08:12:11.337Z,20.66
2019-04-06T08:13:11.359Z,20.66
2019-04-06T08:14:11.454Z,20.69
2019-04-06T08:15:11.221Z,20.66
2019-04-06T08:16:11.213Z,20.68
2019-04-06T08:17:11.323Z,20.69
2019-04-06T08:18:11.450Z,20.71
2019-04-06T08:19:11.338Z,20.69
2019-04-06T08:20:11.405Z,20.69
2019-04-06T08:21:11.596Z,20.7
2019-04-06T08:22:18.676Z,20.71
2019-04-06T08:23:11.103Z,20.71
2019-04-06T08:24:11.125Z,20.73
2019-04-06T08:25:11.242Z,20.75
2019-04-06T08:26:11.136Z,20.73
2019-04-06T08:27:11.231Z,20.72
2019-04-06T08:28:11.127Z,20.74
2019-04-06T08:29:11.512Z,20.72
2019-04-06T08:30:11.363Z,20.75
2019-04-06T08:31:11.241Z,20.76
2019-04-06T08:32:11.274Z,20.72
2019-04-06T08:33:11.173Z,20.74
2019-04-06T08:34:14.339Z,20.74
2019-04-06T08:35:11.294Z,20.75
2019-04-06T08:36:11.277Z,20.75
2019-04-06T08:37:11.291Z,20.73
2019-04-06T08:38:11.296Z,20.71
2019-04-06T08:39:11.458Z,20.74
2019-04-06T08:40:11.273Z,20.74
2019-04-06T08:41:11.385Z,20.73
2019-04-06T08:42:11.302Z,20.73
2019-04-06T08:43:11.143Z,20.73
2019-04-06T08:44:11.504Z,20.74
2019-04-06T08:45:14.217Z,20.74
2019-04-06T08:46:11.134Z,20.72
2019-04-06T08:47:11.500Z,20.73
2019-04-06T08:48:11.206Z,20.71
2019-04-06T08:49:11.024Z,20.72
2019-04-06T08:50:11.616Z,20.72
2019-04-06T08:51:11.427Z,20.72
2019-04-06T08:52:12.526Z,20.71
2019-04-06T08:53:11.055Z,20.72
2019-04-06T08:54:11.204Z,20.7
2019-04-06T08:55:11.495Z,20.7
2019-04-06T08:56:11.279Z,20.7
2019-04-06T08:57:12.267Z,20.69
2019-04-06T08:58:11.567Z,20.69
2019-04-06T08:59:13.929Z,20.7
2019-04-06T09:00:12.230Z,20.68
2019-04-06T09:01:11.471Z,20.68
2019-04-06T09:02:11.180Z,20.66
2019-04-06T09:03:11.085Z,20.69
2019-04-06T09:04:11.334Z,20.69
2019-04-06T09:05:11.209Z,20.66
2019-04-06T09:06:11.096Z,20.66
2019-04-06T09:07:11.257Z,20.65
2019-04-06T09:08:11.433Z,20.65
2019-04-06T09:09:11.243Z,20.65
2019-04-06T09:10:11.078Z,20.63
2019-04-06T09:11:11.530Z,20.65
2019-04-06T09:12:11.291Z,20.65
2019-04-06T09:13:11.176Z,20.66
2019-04-06T09:14:10.974Z,20.64
2019-04-06T09:15:11.460Z,20.63
2019-04-06T09:16:11.794Z,20.64
2019-04-06T09:17:11.243Z,20.63
2019-04-06T09:18:11.504Z,20.62
2019-04-06T09:19:11.253Z,20.61
2019-04-06T09:20:11.420Z,20.6
2019-04-06T09:21:11.546Z,20.6
2019-04-06T09:22:11.498Z,20.62
2019-04-06T09:23:11.095Z,20.58
2019-04-06T09:24:11.076Z,20.57
2019-04-06T09:25:11.072Z,20.55
2019-04-06T09:26:11.393Z,20.57
2019-04-06T09:27:11.119Z,20.57
2019-04-06T09:28:11.174Z,20.56
2019-04-06T09:29:25.128Z,20.55
2019-04-06T09:30:11.569Z,20.55
2019-04-06T09:31:11.151Z,20.51
2019-04-06T09:32:11.206Z,20.53
2019-04-06T09:33:11.205Z,20.54
2019-04-06T09:34:11.072Z,20.54
2019-04-06T09:35:11.480Z,20.5
2019-04-06T09:36:11.241Z,20.51
2019-04-06T09:37:11.430Z,20.51
2019-04-06T09:38:11.213Z,20.49
2019-04-06T09:39:11.342Z,20.48
2019-04-06T09:40:11.099Z,20.45
2019-04-06T09:41:11.049Z,20.47
2019-04-06T09:42:11.260Z,20.47
2019-04-06T09:43:11.048Z,20.45
2019-04-06T09:44:11.626Z,20.46
2019-04-06T09:45:11.632Z,20.44
2019-04-06T09:46:11.175Z,20.44
2019-04-06T09:47:11.505Z,20.44
2019-04-06T09:48:11.172Z,20.41
2019-04-06T09:49:11.338Z,20.42
2019-04-06T09:50:11.125Z,20.42
2019-04-06T09:51:11.195Z,20.42
2019-04-06T09:52:11.334Z,20.41
2019-04-06T09:53:11.247Z,20.43
2019-04-06T09:54:11.258Z,20.45
2019-04-06T09:55:11.219Z,20.44
2019-04-06T09:56:11.428Z,20.43
2019-04-06T09:57:11.286Z,20.42
2019-04-06T09:58:11.267Z,20.42
2019-04-06T09:59:11.323Z,20.43
2019-04-06T10:00:11.074Z,20.41
2019-04-06T10:01:11.111Z,20.43
2019-04-06T10:02:11.403Z,20.42
2019-04-06T10:03:11.206Z,20.41
2019-04-06T10:04:11.101Z,20.45
2019-04-06T10:05:12.077Z,20.45
2019-04-06T10:06:11.133Z,20.42
2019-04-06T10:07:11.177Z,20.45
2019-04-06T10:08:11.459Z,20.42
2019-04-06T10:09:11.179Z,20.43
2019-04-06T10:10:11.015Z,20.44
2019-04-06T10:11:11.143Z,20.45
2019-04-06T10:12:11.381Z,20.43
2019-04-06T10:13:11.195Z,20.43
2019-04-06T10:14:11.280Z,20.41
2019-04-06T10:15:11.810Z,20.42
2019-04-06T10:16:11.618Z,20.41
2019-04-06T10:17:11.511Z,20.41
2019-04-06T10:18:11.612Z,20.42
2019-04-06T10:19:11.130Z,20.4
2019-04-06T10:20:11.024Z,20.4
2019-04-06T10:21:11.071Z,20.4
2019-04-06T10:22:11.074Z,20.39
2019-04-06T10:23:11.127Z,20.36
2019-04-06T10:24:11.121Z,20.37
2019-04-06T10:25:11.890Z,20.36
2019-04-06T10:26:11.216Z,20.36
2019-04-06T10:27:11.449Z,20.34
2019-04-06T10:28:11.446Z,20.34
2019-04-06T10:29:11.318Z,20.36
2019-04-06T10:30:11.302Z,20.35
2019-04-06T10:31:11.492Z,20.34
2019-04-06T10:32:11.531Z,20.33
2019-04-06T10:33:11.334Z,20.31
2019-04-06T10:34:10.985Z,20.31
2019-04-06T10:35:11.377Z,20.3
2019-04-06T10:36:11.250Z,20.3
2019-04-06T10:37:11.257Z,20.27
2019-04-06T10:38:11.223Z,20.3
2019-04-06T10:39:11.179Z,20.27
2019-04-06T10:40:11.023Z,20.27
2019-04-06T10:41:11.486Z,20.27
2019-04-06T10:42:11.470Z,20.24
2019-04-06T10:43:11.069Z,20.22
2019-04-06T10:44:11.400Z,20.22
2019-04-06T10:45:11.116Z,20.24
2019-04-06T10:46:11.132Z,20.22
2019-04-06T10:47:11.533Z,20.21
2019-04-06T10:48:11.224Z,20.2
2019-04-06T10:49:11.500Z,20.2
2019-04-06T10:50:11.135Z,20.19
2019-04-06T10:51:11.155Z,20.18
2019-04-06T10:52:11.225Z,20.17
2019-04-06T10:53:11.220Z,20.17
2019-04-06T10:54:11.164Z,20.16
2019-04-06T10:55:11.829Z,20.17
2019-04-06T10:56:11.792Z,20.15
2019-04-06T10:57:11.392Z,20.14
2019-04-06T10:58:11.004Z,20.13
2019-04-06T10:59:11.092Z,20.17
2019-04-06T11:00:11.155Z,20.14
2019-04-06T11:01:11.313Z,20.13
2019-04-06T11:02:11.106Z,20.13
2019-04-06T11:03:11.139Z,20.12
2019-04-06T11:04:11.268Z,20.12
2019-04-06T11:05:11.152Z,20.14
2019-04-06T11:06:11.137Z,20.14
2019-04-06T11:07:11.256Z,20.13
2019-04-06T11:08:11.216Z,20.12
2019-04-06T11:09:11.183Z,20.12
2019-04-06T11:10:11.422Z,20.12
2019-04-06T11:11:11.344Z,20.15
2019-04-06T11:12:11.397Z,20.14
2019-04-06T11:13:11.259Z,20.12
2019-04-06T11:14:11.138Z,20.12
2019-04-06T11:15:11.018Z,20.11
2019-04-06T11:16:10.939Z,20.13
2019-04-06T11:17:11.053Z,20.12
2019-04-06T11:18:11.073Z,20.11
2019-04-06T11:19:11.350Z,20.09
2019-04-06T11:20:11.018Z,20.1
2019-04-06T11:21:11.227Z,20.09
2019-04-06T11:22:11.090Z,20.07
2019-04-06T11:23:11.154Z,20.1
2019-04-06T11:24:11.145Z,20.09
2019-04-06T11:25:11.117Z,20.06
2019-04-06T11:26:11.147Z,20.07
2019-04-06T11:27:11.164Z,20.07
2019-04-06T11:28:11.677Z,20.06
2019-04-06T11:29:11.172Z,20.05
2019-04-06T11:30:15.618Z,20.05
2019-04-06T11:31:11.186Z,20.03
2019-04-06T11:32:11.367Z,20.04
2019-04-06T11:33:11.096Z,20.04
2019-04-06T11:34:11.005Z,20.04
2019-04-06T11:35:11.367Z,20.02
2019-04-06T11:36:11.368Z,20.02
2019-04-06T11:37:11.022Z,20.01
2019-04-06T11:38:11.159Z,20.01
2019-04-06T11:39:11.079Z,20
2019-04-06T11:40:11.116Z,20
2019-04-06T11:41:11.163Z,20
2019-04-06T11:42:11.109Z,19.99
2019-04-06T11:43:11.045Z,19.98
2019-04-06T11:44:11.263Z,19.99
2019-04-06T11:45:11.114Z,19.95
2019-04-06T11:46:11.132Z,19.97
2019-04-06T11:47:11.423Z,19.98
2019-04-06T11:48:11.161Z,19.94
2019-04-06T11:49:11.314Z,19.95
2019-04-06T11:50:11.217Z,19.95
2019-04-06T11:51:11.258Z,19.92
2019-04-06T11:52:11.476Z,19.91
2019-04-06T11:53:11.107Z,19.91
2019-04-06T11:54:11.419Z,19.91
2019-04-06T11:55:10.986Z,19.94
2019-04-06T11:56:11.112Z,19.9
2019-04-06T11:57:11.105Z,19.9
2019-04-06T11:58:11.141Z,19.89
2019-04-06T11:59:11.089Z,19.89
2019-04-06T12:00:28.169Z,19.86
2019-04-06T12:01:11.177Z,19.88
2019-04-06T12:02:11.136Z,19.86
2019-04-06T12:03:11.158Z,19.86
2019-04-06T12:04:11.464Z,19.86
2019-04-06T12:05:11.156Z,19.86
2019-04-06T12:06:11.482Z,19.85
2019-04-06T12:07:11.386Z,19.84
2019-04-06T12:08:11.492Z,19.85
2019-04-06T12:09:11.143Z,19.83
2019-04-06T12:10:11.723Z,19.84
2019-04-06T12:11:11.243Z,19.85
2019-04-06T12:12:11.101Z,19.82
2019-04-06T12:13:11.422Z,19.82
2019-04-06T12:14:11.111Z,19.81
2019-04-06T12:15:11.027Z,19.81
2019-04-06T12:16:11.154Z,19.8
2019-04-06T12:17:11.110Z,19.8
2019-04-06T12:18:11.161Z,19.8
2019-04-06T12:19:11.051Z,19.81
2019-04-06T12:20:11.201Z,19.8
2019-04-06T12:21:11.110Z,19.79
2019-04-06T12:22:11.248Z,19.79
2019-04-06T12:23:11.128Z,19.79
2019-04-06T12:24:11.504Z,19.77
2019-04-06T12:25:11.419Z,19.79
2019-04-06T12:26:11.033Z,19.77
2019-04-06T12:27:11.224Z,19.76
2019-04-06T12:28:11.337Z,19.77
2019-04-06T12:29:11.412Z,19.77
2019-04-06T12:30:10.939Z,19.77
2019-04-06T12:31:11.011Z,19.79
2019-04-06T12:32:11.254Z,19.77
2019-04-06T12:33:11.133Z,19.79
2019-04-06T12:34:11.371Z,19.81
2019-04-06T12:35:11.013Z,19.81
2019-04-06T12:36:11.572Z,19.81
2019-04-06T12:37:11.366Z,19.8
2019-04-06T12:38:11.088Z,19.82
2019-04-06T12:39:11.089Z,19.82
2019-04-06T12:40:11.495Z,19.82
2019-04-06T12:41:11.620Z,19.83
2019-04-06T12:42:11.116Z,19.82
2019-04-06T12:43:11.509Z,19.83
2019-04-06T12:44:11.182Z,19.82
2019-04-06T12:45:11.214Z,19.82
2019-04-06T12:46:10.978Z,19.83
2019-04-06T12:47:12.072Z,19.84
2019-04-06T12:48:11.315Z,19.84
2019-04-06T12:49:11.260Z,19.85
2019-04-06T12:50:10.998Z,19.84
2019-04-06T12:51:10.990Z,19.86
2019-04-06T12:52:11.202Z,19.86
2019-04-06T12:53:11.447Z,19.85
2019-04-06T12:54:10.947Z,19.85
2019-04-06T12:55:11.039Z,19.85